sensor_id;sensor_type;location;lat;lon;timestamp;pressure;altitude;pressure_sealevel;temperature;humidity
27643;BME280;15053;48.618;10.024;2022-10-16T00:01:27;94252.59;;;15.47;93.64
27643;BME280;15053;48.618;10.024;2022-10-16T00:03:55;94247.97;;;15.44;93.67
27643;BME280;15053;48.618;10.024;2022-10-16T00:06:22;94250.28;;;15.45;93.22
27643;BME280;15053;48.618;10.024;2022-10-16T00:08:49;94249.50;;;15.45;93.33
27643;BME280;15053;48.618;10.024;2022-10-16T00:11:21;94250.28;;;15.45;93.11
27643;BME280;15053;48.618;10.024;2022-10-16T00:13:49;94251.69;;;15.43;92.88
27643;BME280;15053;48.618;10.024;2022-10-16T00:16:18;94244.44;;;15.40;92.58
27643;BME280;15053;48.618;10.024;2022-10-16T00:18:45;94248.13;;;15.38;92.89
27643;BME280;15053;48.618;10.024;2022-10-16T00:21:21;94251.88;;;15.38;93.07
27643;BME280;15053;48.618;10.024;2022-10-16T00:23:57;94252.94;;;15.36;92.59
27643;BME280;15053;48.618;10.024;2022-10-16T00:26:26;94255.13;;;15.34;93.02
27643;BME280;15053;48.618;10.024;2022-10-16T00:28:53;94261.78;;;15.32;92.98
27643;BME280;15053;48.618;10.024;2022-10-16T00:31:21;94261.00;;;15.31;92.87
27643;BME280;15053;48.618;10.024;2022-10-16T00:33:48;94255.59;;;15.28;93.01
27643;BME280;15053;48.618;10.024;2022-10-16T00:36:18;94254.38;;;15.25;93.17
27643;BME280;15053;48.618;10.024;2022-10-16T00:38:45;94259.19;;;15.23;93.25
27643;BME280;15053;48.618;10.024;2022-10-16T00:41:16;94253.16;;;15.23;93.49
27643;BME280;15053;48.618;10.024;2022-10-16T00:43:45;94257.63;;;15.22;93.37
27643;BME280;15053;48.618;10.024;2022-10-16T00:46:19;94257.63;;;15.22;93.27
27643;BME280;15053;48.618;10.024;2022-10-16T00:48:56;94259.81;;;15.20;93.53
27643;BME280;15053;48.618;10.024;2022-10-16T00:51:30;94262.44;;;15.20;93.15
27643;BME280;15053;48.618;10.024;2022-10-16T00:53:57;94257.50;;;15.19;93.41
27643;BME280;15053;48.618;10.024;2022-10-16T00:56:25;94257.34;;;15.15;93.28
27643;BME280;15053;48.618;10.024;2022-10-16T00:58:52;94262.91;;;15.14;93.21
27643;BME280;15053;48.618;10.024;2022-10-16T01:01:18;94264.31;;;15.11;93.42
27643;BME280;15053;48.618;10.024;2022-10-16T01:03:45;94264.63;;;15.10;93.28
27643;BME280;15053;48.618;10.024;2022-10-16T01:06:32;94273.56;;;15.09;93.44
27643;BME280;15053;48.618;10.024;2022-10-16T01:11:39;94278.66;;;15.05;93.41
27643;BME280;15053;48.618;10.024;2022-10-16T01:14:15;94277.91;;;15.05;93.47
27643;BME280;15053;48.618;10.024;2022-10-16T01:16:58;94279.31;;;15.02;93.47
27643;BME280;15053;48.618;10.024;2022-10-16T01:19:54;94271.16;;;14.95;93.67
27643;BME280;15053;48.618;10.024;2022-10-16T01:22:37;94277.31;;;14.99;93.70
27643;BME280;15053;48.618;10.024;2022-10-16T01:25:11;94285.03;;;14.96;93.84
27643;BME280;15053;48.618;10.024;2022-10-16T01:27:39;94273.94;;;14.90;93.76
27643;BME280;15053;48.618;10.024;2022-10-16T01:30:12;94267.63;;;14.91;93.76
27643;BME280;15053;48.618;10.024;2022-10-16T01:33:22;94260.38;;;14.88;94.17
27643;BME280;15053;48.618;10.024;2022-10-16T01:35:58;94261.00;;;14.85;94.13
27643;BME280;15053;48.618;10.024;2022-10-16T01:38:30;94260.22;;;14.85;94.36
27643;BME280;15053;48.618;10.024;2022-10-16T01:41:01;94261.63;;;14.82;94.42
27643;BME280;15053;48.618;10.024;2022-10-16T01:43:43;94270.56;;;14.81;94.35
27643;BME280;15053;48.618;10.024;2022-10-16T01:46:16;94273.81;;;14.78;94.48
27643;BME280;15053;48.618;10.024;2022-10-16T01:48:45;94273.34;;;14.76;94.10
27643;BME280;15053;48.618;10.024;2022-10-16T01:51:13;94281.22;;;14.76;94.49
27643;BME280;15053;48.618;10.024;2022-10-16T01:53:44;94282.00;;;14.76;94.66
27643;BME280;15053;48.618;10.024;2022-10-16T01:56:12;94280.75;;;14.74;94.54
27643;BME280;15053;48.618;10.024;2022-10-16T01:58:45;94288.81;;;14.69;94.72
27643;BME280;15053;48.618;10.024;2022-10-16T02:01:15;94288.97;;;14.64;94.81
27643;BME280;15053;48.618;10.024;2022-10-16T02:03:44;94287.72;;;14.61;95.04
27643;BME280;15053;48.618;10.024;2022-10-16T02:06:12;94284.78;;;14.63;95.39
27643;BME280;15053;48.618;10.024;2022-10-16T02:08:38;94274.75;;;14.65;95.33
27643;BME280;15053;48.618;10.024;2022-10-16T02:11:06;94265.66;;;14.62;95.14
27643;BME280;15053;48.618;10.024;2022-10-16T02:13:39;94263.19;;;14.66;95.67
27643;BME280;15053;48.618;10.024;2022-10-16T02:16:09;94282.00;;;14.68;95.40
27643;BME280;15053;48.618;10.024;2022-10-16T02:18:36;94283.56;;;14.69;95.47
27643;BME280;15053;48.618;10.024;2022-10-16T02:23:50;94269.81;;;14.72;95.63
27643;BME280;15053;48.618;10.024;2022-10-16T02:26:28;94272.44;;;14.72;95.67
27643;BME280;15053;48.618;10.024;2022-10-16T02:29:02;94282.63;;;14.73;95.43
27643;BME280;15053;48.618;10.024;2022-10-16T02:31:35;94274.28;;;14.71;95.86
27643;BME280;15053;48.618;10.024;2022-10-16T02:34:03;94280.59;;;14.79;95.65
27643;BME280;15053;48.618;10.024;2022-10-16T02:36:32;94277.53;;;14.77;95.65
27643;BME280;15053;48.618;10.024;2022-10-16T02:39:01;94272.44;;;14.72;95.33
27643;BME280;15053;48.618;10.024;2022-10-16T02:41:30;94280.75;;;14.74;95.49
27643;BME280;15053;48.618;10.024;2022-10-16T02:43:57;94290.03;;;14.71;95.55
27643;BME280;15053;48.618;10.024;2022-10-16T02:46:23;94292.31;;;14.73;95.57
27643;BME280;15053;48.618;10.024;2022-10-16T02:48:50;94287.53;;;14.75;95.71
27643;BME280;15053;48.618;10.024;2022-10-16T02:51:16;94291.41;;;14.77;95.44
27643;BME280;15053;48.618;10.024;2022-10-16T02:53:43;94289.53;;;14.78;95.55
27643;BME280;15053;48.618;10.024;2022-10-16T02:56:09;94288.47;;;14.79;95.84
27643;BME280;15053;48.618;10.024;2022-10-16T02:58:36;94288.13;;;14.81;95.60
27643;BME280;15053;48.618;10.024;2022-10-16T03:01:02;94290.00;;;14.80;95.74
27643;BME280;15053;48.618;10.024;2022-10-16T03:03:29;94293.09;;;14.82;95.57
27643;BME280;15053;48.618;10.024;2022-10-16T03:05:55;94290.47;;;14.82;95.66
27643;BME280;15053;48.618;10.024;2022-10-16T03:08:21;94287.84;;;14.82;95.77
27643;BME280;15053;48.618;10.024;2022-10-16T03:10:50;94286.78;;;14.83;95.67
27643;BME280;15053;48.618;10.024;2022-10-16T03:13:17;94290.47;;;14.82;95.84
27643;BME280;15053;48.618;10.024;2022-10-16T03:15:46;94309.13;;;14.81;95.86
27643;BME280;15053;48.618;10.024;2022-10-16T03:18:12;94307.28;;;14.81;95.97
27643;BME280;15053;48.618;10.024;2022-10-16T03:20:39;94297.88;;;14.80;95.85
27643;BME280;15053;48.618;10.024;2022-10-16T03:23:06;94275.03;;;14.81;95.79
27643;BME280;15053;48.618;10.024;2022-10-16T03:25:34;94261.91;;;14.81;95.85
27643;BME280;15053;48.618;10.024;2022-10-16T03:28:01;94273.81;;;14.78;95.63
27643;BME280;15053;48.618;10.024;2022-10-16T03:30:28;94290.94;;;14.75;96.07
27643;BME280;15053;48.618;10.024;2022-10-16T03:32:54;94284.00;;;14.71;96.06
27643;BME280;15053;48.618;10.024;2022-10-16T03:35:22;94294.66;;;14.66;95.79
27643;BME280;15053;48.618;10.024;2022-10-16T03:37:49;94300.53;;;14.63;96.21
27643;BME280;15053;48.618;10.024;2022-10-16T03:40:16;94299.75;;;14.62;96.46
27643;BME280;15053;48.618;10.024;2022-10-16T03:42:43;94291.09;;;14.62;96.56
27643;BME280;15053;48.618;10.024;2022-10-16T03:45:10;94283.41;;;14.57;96.55
27643;BME280;15053;48.618;10.024;2022-10-16T03:47:37;94282.00;;;14.59;96.51
27643;BME280;15053;48.618;10.024;2022-10-16T03:50:04;94285.72;;;14.58;96.67
27643;BME280;15053;48.618;10.024;2022-10-16T03:52:30;94283.41;;;14.57;96.63
27643;BME280;15053;48.618;10.024;2022-10-16T03:54:58;94293.88;;;14.57;96.67
27643;BME280;15053;48.618;10.024;2022-10-16T03:57:25;94289.44;;;14.57;96.66
27643;BME280;15053;48.618;10.024;2022-10-16T03:59:51;94283.41;;;14.57;96.74
27643;BME280;15053;48.618;10.024;2022-10-16T04:02:18;94281.84;;;14.56;96.66
27643;BME280;15053;48.618;10.024;2022-10-16T04:04:44;94280.63;;;14.53;96.40
27643;BME280;15053;48.618;10.024;2022-10-16T04:07:10;94277.88;;;14.50;96.80
27643;BME280;15053;48.618;10.024;2022-10-16T04:09:37;94277.88;;;14.50;96.50
27643;BME280;15053;48.618;10.024;2022-10-16T04:12:03;94273.25;;;14.47;96.75
27643;BME280;15053;48.618;10.024;2022-10-16T04:14:30;94284.34;;;14.44;96.71
27643;BME280;15053;48.618;10.024;2022-10-16T04:16:56;94290.81;;;14.38;96.77
27643;BME280;15053;48.618;10.024;2022-10-16T04:19:23;94299.47;;;14.38;96.96
27643;BME280;15053;48.618;10.024;2022-10-16T04:21:49;94302.38;;;14.37;96.70
27643;BME280;15053;48.618;10.024;2022-10-16T04:24:16;94303.31;;;14.32;96.50
27643;BME280;15053;48.618;10.024;2022-10-16T04:26:42;94305.16;;;14.32;96.83
27643;BME280;15053;48.618;10.024;2022-10-16T04:29:08;94311.44;;;14.31;96.88
27643;BME280;15053;48.618;10.024;2022-10-16T04:31:35;94313.00;;;14.32;97.13
27643;BME280;15053;48.618;10.024;2022-10-16T04:34:01;94307.75;;;14.32;96.87
27643;BME280;15053;48.618;10.024;2022-10-16T04:36:28;94314.06;;;14.31;97.32
27643;BME280;15053;48.618;10.024;2022-10-16T04:38:54;94313.59;;;14.29;97.31
27643;BME280;15053;48.618;10.024;2022-10-16T04:41:21;94321.00;;;14.27;97.17
27643;BME280;15053;48.618;10.024;2022-10-16T04:43:47;94315.59;;;14.23;97.31
27643;BME280;15053;48.618;10.024;2022-10-16T04:46:14;94322.06;;;14.26;97.65
27643;BME280;15053;48.618;10.024;2022-10-16T04:48:40;94320.81;;;14.23;97.38
27643;BME280;15053;48.618;10.024;2022-10-16T04:51:06;94317.13;;;14.24;97.56
27643;BME280;15053;48.618;10.024;2022-10-16T04:53:33;94316.81;;;14.26;97.53
27643;BME280;15053;48.618;10.024;2022-10-16T04:56:00;94317.91;;;14.25;97.40
27643;BME280;15053;48.618;10.024;2022-10-16T04:58:26;94315.75;;;14.27;97.59
27643;BME280;15053;48.618;10.024;2022-10-16T05:00:53;94324.69;;;14.26;97.44
27643;BME280;15053;48.618;10.024;2022-10-16T05:03:19;94324.06;;;14.29;97.36
27643;BME280;15053;48.618;10.024;2022-10-16T05:05:46;94322.06;;;14.26;97.56
27643;BME280;15053;48.618;10.024;2022-10-16T05:08:14;94327.16;;;14.22;97.26
27643;BME280;15053;48.618;10.024;2022-10-16T05:10:42;94325.94;;;14.19;97.47
27643;BME280;15053;48.618;10.024;2022-10-16T05:13:09;94324.69;;;14.17;97.89
27643;BME280;15053;48.618;10.024;2022-10-16T05:15:36;94319.47;;;14.17;97.58
27643;BME280;15053;48.618;10.024;2022-10-16T05:18:03;94315.28;;;14.16;98.05
27643;BME280;15053;48.618;10.024;2022-10-16T05:20:29;94311.13;;;14.15;97.86
27643;BME280;15053;48.618;10.024;2022-10-16T05:22:56;94318.53;;;14.22;97.99
27643;BME280;15053;48.618;10.024;2022-10-16T05:25:22;94322.69;;;14.23;98.38
27643;BME280;15053;48.618;10.024;2022-10-16T05:27:49;94314.84;;;14.23;98.07
27643;BME280;15053;48.618;10.024;2022-10-16T05:30:17;94321.59;;;14.24;98.11
27643;BME280;15053;48.618;10.024;2022-10-16T05:32:48;94323.94;;;14.25;98.12
27643;BME280;15053;48.618;10.024;2022-10-16T05:35:15;94320.09;;;14.23;98.21
27643;BME280;15053;48.618;10.024;2022-10-16T05:37:43;94318.38;;;14.27;98.28
27643;BME280;15053;48.618;10.024;2022-10-16T05:40:10;94321.44;;;14.29;98.20
27643;BME280;15053;48.618;10.024;2022-10-16T05:42:38;94320.38;;;14.30;98.05
27643;BME280;15053;48.618;10.024;2022-10-16T05:45:05;94329.00;;;14.30;98.08
27643;BME280;15053;48.618;10.024;2022-10-16T05:47:32;94337.66;;;14.31;98.14
27643;BME280;15053;48.618;10.024;2022-10-16T05:49:59;94342.59;;;14.32;98.04
27643;BME280;15053;48.618;10.024;2022-10-16T05:52:26;94345.69;;;14.34;98.20
27643;BME280;15053;48.618;10.024;2022-10-16T05:54:53;94355.88;;;14.36;98.27
27643;BME280;15053;48.618;10.024;2022-10-16T05:57:19;94359.41;;;14.40;98.18
27643;BME280;15053;48.618;10.024;2022-10-16T05:59:46;94350.78;;;14.39;97.92
27643;BME280;15053;48.618;10.024;2022-10-16T06:02:13;94344.16;;;14.42;97.87
27643;BME280;15053;48.618;10.024;2022-10-16T06:04:40;94346.19;;;14.45;97.56
27643;BME280;15053;48.618;10.024;2022-10-16T06:07:06;94360.50;;;14.47;97.84
27643;BME280;15053;48.618;10.024;2022-10-16T06:09:33;94358.03;;;14.51;97.92
27643;BME280;15053;48.618;10.024;2022-10-16T06:11:59;94351.38;;;14.53;97.75
27643;BME280;15053;48.618;10.024;2022-10-16T06:14:26;94362.03;;;14.57;97.52
27643;BME280;15053;48.618;10.024;2022-10-16T06:16:52;94367.44;;;14.60;97.68
27643;BME280;15053;48.618;10.024;2022-10-16T06:19:18;94360.97;;;14.66;97.39
27643;BME280;15053;48.618;10.024;2022-10-16T06:21:45;94359.25;;;14.70;97.35
27643;BME280;15053;48.618;10.024;2022-10-16T06:24:11;94363.88;;;14.73;97.32
27643;BME280;15053;48.618;10.024;2022-10-16T06:26:37;94372.22;;;14.75;97.29
27643;BME280;15053;48.618;10.024;2022-10-16T06:29:04;94375.44;;;14.81;96.99
27643;BME280;15053;48.618;10.024;2022-10-16T06:31:31;94377.44;;;14.84;96.89
27643;BME280;15053;48.618;10.024;2022-10-16T06:34:00;94381.47;;;14.90;96.77
27643;BME280;15053;48.618;10.024;2022-10-16T06:36:27;94377.16;;;14.94;96.77
27643;BME280;15053;48.618;10.024;2022-10-16T06:38:54;94380.69;;;14.98;96.40
27643;BME280;15053;48.618;10.024;2022-10-16T06:41:21;94383.75;;;15.00;95.95
27643;BME280;15053;48.618;10.024;2022-10-16T06:43:48;94393.47;;;15.08;95.59
27643;BME280;15053;48.618;10.024;2022-10-16T06:46:17;94405.97;;;15.11;95.10
27643;BME280;15053;48.618;10.024;2022-10-16T06:48:43;94395.78;;;15.10;95.21
27643;BME280;15053;48.618;10.024;2022-10-16T06:51:12;94408.59;;;15.11;95.38
27643;BME280;15053;48.618;10.024;2022-10-16T06:53:42;94405.66;;;15.13;95.27
27643;BME280;15053;48.618;10.024;2022-10-16T06:56:28;94405.97;;;15.11;95.24
27643;BME280;15053;48.618;10.024;2022-10-16T06:58:56;94408.75;;;15.15;94.94
27643;BME280;15053;48.618;10.024;2022-10-16T07:01:24;94409.53;;;15.15;94.95
27643;BME280;15053;48.618;10.024;2022-10-16T07:03:50;94418.78;;;15.21;94.95
27643;BME280;15053;48.618;10.024;2022-10-16T07:06:20;94426.00;;;15.24;94.62
27643;BME280;15053;48.618;10.024;2022-10-16T07:08:47;94427.88;;;15.32;94.59
27643;BME280;15053;48.618;10.024;2022-10-16T07:11:17;94425.53;;;15.40;94.48
27643;BME280;15053;48.618;10.024;2022-10-16T07:13:44;94428.00;;;15.45;94.37
27643;BME280;15053;48.618;10.024;2022-10-16T07:16:21;94426.00;;;15.50;94.14
27643;BME280;15053;48.618;10.024;2022-10-16T07:18:48;94432.63;;;15.56;94.07
27643;BME280;15053;48.618;10.024;2022-10-16T07:21:17;94427.97;;;15.62;93.86
27643;BME280;15053;48.618;10.024;2022-10-16T07:23:46;94435.69;;;15.67;93.80
27643;BME280;15053;48.618;10.024;2022-10-16T07:26:16;94437.25;;;15.68;93.20
27643;BME280;15053;48.618;10.024;2022-10-16T07:28:43;94437.06;;;15.73;93.56
27643;BME280;15053;48.618;10.024;2022-10-16T07:31:11;94445.84;;;15.77;93.51
27643;BME280;15053;48.618;10.024;2022-10-16T07:33:40;94453.25;;;15.83;93.31
27643;BME280;15053;48.618;10.024;2022-10-16T07:36:09;94447.03;;;15.88;92.97
27643;BME280;15053;48.618;10.024;2022-10-16T07:38:42;94444.13;;;15.89;92.74
27643;BME280;15053;48.618;10.024;2022-10-16T07:41:14;94451.38;;;15.92;92.45
27643;BME280;15053;48.618;10.024;2022-10-16T07:43:48;94456.31;;;15.94;91.72
27643;BME280;15053;48.618;10.024;2022-10-16T07:46:16;94460.03;;;15.93;91.24
27643;BME280;15053;48.618;10.024;2022-10-16T07:48:43;94456.31;;;15.94;91.19
27643;BME280;15053;48.618;10.024;2022-10-16T07:51:23;94462.34;;;15.94;91.42
27643;BME280;15053;48.618;10.024;2022-10-16T07:53:50;94467.59;;;15.94;91.62
27643;BME280;15053;48.618;10.024;2022-10-16T07:56:18;94469.88;;;15.96;91.73
27643;BME280;15053;48.618;10.024;2022-10-16T07:58:45;94469.88;;;15.96;91.74
27643;BME280;15053;48.618;10.024;2022-10-16T08:01:13;94477.28;;;16.03;91.79
27643;BME280;15053;48.618;10.024;2022-10-16T08:03:45;94454.13;;;15.96;91.70
27643;BME280;15053;48.618;10.024;2022-10-16T08:06:12;94474.03;;;16.06;91.38
27643;BME280;15053;48.618;10.024;2022-10-16T08:08:39;94480.19;;;16.10;91.58
27643;BME280;15053;48.618;10.024;2022-10-16T08:11:05;94479.72;;;16.16;90.94
27643;BME280;15053;48.618;10.024;2022-10-16T08:13:32;94482.16;;;16.21;90.29
27643;BME280;15053;48.618;10.024;2022-10-16T08:15:59;94495.78;;;16.23;89.59
27643;BME280;15053;48.618;10.024;2022-10-16T08:18:25;94489.41;;;16.24;89.32
27643;BME280;15053;48.618;10.024;2022-10-16T08:20:55;94496.66;;;16.27;88.97
27643;BME280;15053;48.618;10.024;2022-10-16T08:23:23;94504.22;;;16.29;88.51
27643;BME280;15053;48.618;10.024;2022-10-16T08:25:55;94508.75;;;16.28;88.24
27643;BME280;15053;48.618;10.024;2022-10-16T08:28:22;94510.41;;;16.33;88.09
27643;BME280;15053;48.618;10.024;2022-10-16T08:30:49;94506.81;;;16.37;87.64
27643;BME280;15053;48.618;10.024;2022-10-16T08:33:15;94508.06;;;16.40;87.41
27643;BME280;15053;48.618;10.024;2022-10-16T08:35:42;94509.75;;;16.44;87.79
27643;BME280;15053;48.618;10.024;2022-10-16T08:38:08;94506.16;;;16.49;87.56
27643;BME280;15053;48.618;10.024;2022-10-16T08:40:37;94511.56;;;16.52;87.14
27643;BME280;15053;48.618;10.024;2022-10-16T08:46:18;94528.09;;;16.62;87.28
27643;BME280;15053;48.618;10.024;2022-10-16T08:48:53;94518.47;;;16.66;87.31
27643;BME280;15053;48.618;10.024;2022-10-16T08:51:26;94516.59;;;16.75;87.33
27643;BME280;15053;48.618;10.024;2022-10-16T08:53:58;94518.25;;;16.79;87.21
27643;BME280;15053;48.618;10.024;2022-10-16T08:56:25;94510.06;;;16.81;86.77
27643;BME280;15053;48.618;10.024;2022-10-16T08:58:53;94511.22;;;16.92;86.78
27643;BME280;15053;48.618;10.024;2022-10-16T09:01:41;94513.03;;;17.00;86.65
27643;BME280;15053;48.618;10.024;2022-10-16T09:04:37;94516.25;;;17.05;86.40
27643;BME280;15053;48.618;10.024;2022-10-16T09:07:28;94531.50;;;17.12;86.20
27643;BME280;15053;48.618;10.024;2022-10-16T09:13:00;94532.41;;;17.16;85.96
27643;BME280;15053;48.618;10.024;2022-10-16T09:15:51;94533.19;;;17.17;86.04
27643;BME280;15053;48.618;10.024;2022-10-16T09:21:23;94533.31;;;17.20;85.96
27643;BME280;15053;48.618;10.024;2022-10-16T09:23:51;94538.13;;;17.18;85.79
27643;BME280;15053;48.618;10.024;2022-10-16T09:26:20;94551.28;;;17.18;85.79
27643;BME280;15053;48.618;10.024;2022-10-16T09:28:51;94553.66;;;17.11;85.35
27643;BME280;15053;48.618;10.024;2022-10-16T09:31:20;94558.16;;;17.10;85.54
27643;BME280;15053;48.618;10.024;2022-10-16T09:34:02;94560.78;;;17.10;86.01
27643;BME280;15053;48.618;10.024;2022-10-16T09:36:42;94560.78;;;17.10;86.03
27643;BME280;15053;48.618;10.024;2022-10-16T09:39:11;94557.19;;;17.15;85.99
27643;BME280;15053;48.618;10.024;2022-10-16T09:41:44;94562.16;;;17.17;86.11
27643;BME280;15053;48.618;10.024;2022-10-16T09:44:19;94566.63;;;17.16;85.73
27643;BME280;15053;48.618;10.024;2022-10-16T09:46:47;94576.66;;;17.23;85.64
27643;BME280;15053;48.618;10.024;2022-10-16T09:49:24;94575.69;;;17.27;86.08
27643;BME280;15053;48.618;10.024;2022-10-16T09:52:03;94571.13;;;17.36;86.11
27643;BME280;15053;48.618;10.024;2022-10-16T09:54:30;94568.13;;;17.46;85.56
27643;BME280;15053;48.618;10.024;2022-10-16T09:57:07;94575.03;;;17.59;85.60
27643;BME280;15053;48.618;10.024;2022-10-16T09:59:52;94572.69;;;17.79;85.00
27643;BME280;15053;48.618;10.024;2022-10-16T10:02:35;94569.56;;;17.97;83.86
27643;BME280;15053;48.618;10.024;2022-10-16T10:05:16;94565.34;;;18.17;82.94
27643;BME280;15053;48.618;10.024;2022-10-16T10:07:43;94578.09;;;18.27;81.79
27643;BME280;15053;48.618;10.024;2022-10-16T10:10:29;94573.72;;;18.31;80.35
27643;BME280;15053;48.618;10.024;2022-10-16T10:12:56;94572.84;;;18.27;79.90
27643;BME280;15053;48.618;10.024;2022-10-16T10:15:23;94578.56;;;18.29;79.65
27643;BME280;15053;48.618;10.024;2022-10-16T10:17:56;94571.31;;;18.26;78.91
27643;BME280;15053;48.618;10.024;2022-10-16T10:22:54;94578.88;;;18.27;79.25
27643;BME280;15053;48.618;10.024;2022-10-16T10:36:38;94579.78;;;18.44;79.64
27643;BME280;15053;48.618;10.024;2022-10-16T10:50:46;94567.81;;;18.34;79.19
27643;BME280;15053;48.618;10.024;2022-10-16T10:53:32;94570.00;;;18.32;79.24
27643;BME280;15053;48.618;10.024;2022-10-16T11:01:56;94563.97;;;18.44;79.14
27643;BME280;15053;48.618;10.024;2022-10-16T11:07:32;94566.66;;;18.68;78.63
27643;BME280;15053;48.618;10.024;2022-10-16T11:10:26;94565.34;;;18.74;78.31
27643;BME280;15053;48.618;10.024;2022-10-16T11:13:10;94562.38;;;18.75;77.91
27643;BME280;15053;48.618;10.024;2022-10-16T11:15:43;94571.94;;;18.80;77.91
27643;BME280;15053;48.618;10.024;2022-10-16T11:18:23;94567.63;;;18.88;77.48
27643;BME280;15053;48.618;10.024;2022-10-16T11:20:57;94568.09;;;18.90;76.91
27643;BME280;15053;48.618;10.024;2022-10-16T11:23:29;94572.59;;;18.89;76.61
27643;BME280;15053;48.618;10.024;2022-10-16T11:26:01;94570.16;;;18.96;76.56
27643;BME280;15053;48.618;10.024;2022-10-16T11:28:35;94575.66;;;19.27;76.02
27643;BME280;15053;48.618;10.024;2022-10-16T11:33:52;94569.16;;;20.05;73.45
27643;BME280;15053;48.618;10.024;2022-10-16T11:36:39;94566.44;;;20.60;71.49
27643;BME280;15053;48.618;10.024;2022-10-16T11:41:41;94548.69;;;21.46;68.50
27643;BME280;15053;48.618;10.024;2022-10-16T11:49:53;94560.69;;;22.36;62.00
27643;BME280;15053;48.618;10.024;2022-10-16T11:52:44;94558.44;;;22.60;60.70
27643;BME280;15053;48.618;10.024;2022-10-16T11:55:18;94563.53;;;22.91;59.60
27643;BME280;15053;48.618;10.024;2022-10-16T12:00:28;94561.28;;;23.46;58.89
27643;BME280;15053;48.618;10.024;2022-10-16T12:08:37;94546.97;;;24.21;54.51
27643;BME280;15053;48.618;10.024;2022-10-16T12:11:09;94549.44;;;24.36;53.68
27643;BME280;15053;48.618;10.024;2022-10-16T12:13:38;94554.81;;;24.43;52.96
27643;BME280;15053;48.618;10.024;2022-10-16T12:18:44;94548.28;;;24.37;52.06
27643;BME280;15053;48.618;10.024;2022-10-16T12:21:12;94551.09;;;24.51;52.47
27643;BME280;15053;48.618;10.024;2022-10-16T12:23:52;94546.97;;;24.57;51.63
27643;BME280;15053;48.618;10.024;2022-10-16T12:26:27;94548.97;;;24.27;52.14
27643;BME280;15053;48.618;10.024;2022-10-16T12:28:55;94544.28;;;23.84;52.19
27643;BME280;15053;48.618;10.024;2022-10-16T12:31:43;94549.84;;;23.72;52.58
27643;BME280;15053;48.618;10.024;2022-10-16T12:34:28;94552.09;;;24.03;51.96
27643;BME280;15053;48.618;10.024;2022-10-16T12:36:56;94551.75;;;24.41;51.21
27643;BME280;15053;48.618;10.024;2022-10-16T12:39:33;94551.03;;;24.44;52.27
27643;BME280;15053;48.618;10.024;2022-10-16T12:42:05;94550.16;;;24.33;53.50
27643;BME280;15053;48.618;10.024;2022-10-16T12:44:35;94547.88;;;24.35;53.82
27643;BME280;15053;48.618;10.024;2022-10-16T12:47:02;94548.56;;;24.25;54.76
27643;BME280;15053;48.618;10.024;2022-10-16T12:49:32;94553.75;;;24.11;55.91
27643;BME280;15053;48.618;10.024;2022-10-16T12:52:01;94558.50;;;23.98;57.08
27643;BME280;15053;48.618;10.024;2022-10-16T12:54:30;94550.75;;;24.16;57.42
27643;BME280;15053;48.618;10.024;2022-10-16T12:57:24;94550.34;;;24.54;56.77
27643;BME280;15053;48.618;10.024;2022-10-16T13:10:47;94560.28;;;25.66;53.85
27643;BME280;15053;48.618;10.024;2022-10-16T13:29:31;94565.53;;;26.42;51.04
27643;BME280;15053;48.618;10.024;2022-10-16T13:31:58;94570.13;;;26.59;50.62
27643;BME280;15053;48.618;10.024;2022-10-16T13:34:27;94570.91;;;26.67;47.75
27643;BME280;15053;48.618;10.024;2022-10-16T13:36:54;94563.25;;;26.65;48.28
27643;BME280;15053;48.618;10.024;2022-10-16T13:39:28;94563.31;;;26.93;48.72
27643;BME280;15053;48.618;10.024;2022-10-16T13:42:04;94563.66;;;27.27;47.45
27643;BME280;15053;48.618;10.024;2022-10-16T13:44:44;94565.19;;;27.42;47.25
27643;BME280;15053;48.618;10.024;2022-10-16T13:47:20;94564.03;;;27.22;47.33
27643;BME280;15053;48.618;10.024;2022-10-16T13:49:58;94569.44;;;26.83;47.60
27643;BME280;15053;48.618;10.024;2022-10-16T13:52:25;94574.69;;;26.34;48.25
27643;BME280;15053;48.618;10.024;2022-10-16T13:54:51;94576.91;;;26.18;48.64
27643;BME280;15053;48.618;10.024;2022-10-16T13:57:22;94560.84;;;26.04;48.77
27643;BME280;15053;48.618;10.024;2022-10-16T13:59:54;94570.31;;;25.91;49.55
27643;BME280;15053;48.618;10.024;2022-10-16T14:02:27;94567.22;;;25.85;50.01
27643;BME280;15053;48.618;10.024;2022-10-16T14:04:56;94569.19;;;25.92;49.88
27643;BME280;15053;48.618;10.024;2022-10-16T14:07:28;94580.97;;;25.84;49.54
27643;BME280;15053;48.618;10.024;2022-10-16T14:10:16;94580.25;;;25.90;49.88
27643;BME280;15053;48.618;10.024;2022-10-16T14:12:45;94581.78;;;25.95;49.86
27643;BME280;15053;48.618;10.024;2022-10-16T14:15:17;94582.19;;;26.07;50.01
27643;BME280;15053;48.618;10.024;2022-10-16T14:17:45;94584.97;;;26.25;50.27
27643;BME280;15053;48.618;10.024;2022-10-16T14:20:14;94586.56;;;26.61;50.00
27643;BME280;15053;48.618;10.024;2022-10-16T14:22:42;94584.69;;;26.79;49.00
27643;BME280;15053;48.618;10.024;2022-10-16T14:27:56;94577.44;;;27.19;47.95
27643;BME280;15053;48.618;10.024;2022-10-16T14:30:23;94583.53;;;27.16;47.87
27643;BME280;15053;48.618;10.024;2022-10-16T14:35:37;94588.91;;;26.98;47.48
27643;BME280;15053;48.618;10.024;2022-10-16T14:38:06;94596.91;;;26.98;47.47
27643;BME280;15053;48.618;10.024;2022-10-16T14:40:46;94585.84;;;27.07;46.07
27643;BME280;15053;48.618;10.024;2022-10-16T14:43:22;94587.75;;;26.81;45.82
27643;BME280;15053;48.618;10.024;2022-10-16T14:45:54;94577.78;;;26.68;45.51
27643;BME280;15053;48.618;10.024;2022-10-16T14:48:22;94586.53;;;26.54;46.66
27643;BME280;15053;48.618;10.024;2022-10-16T14:50:49;94577.34;;;26.37;47.22